createdAt,value
2019-04-14T00:00:55.361Z,2.30
2019-04-14T00:01:54.996Z,2.28
2019-04-14T00:02:55.469Z,2.28
2019-04-14T00:03:54.986Z,2.25
2019-04-14T00:04:55.121Z,2.27
2019-04-14T00:05:56.018Z,2.24
2019-04-14T00:06:54.998Z,2.23
2019-04-14T00:07:55.998Z,2.18
2019-04-14T00:08:54.947Z,2.20
2019-04-14T00:10:02.947Z,2.17
2019-04-14T00:10:55.116Z,2.16
2019-04-14T00:11:54.959Z,2.14
2019-04-14T00:12:55.664Z,2.16
2019-04-14T00:13:54.927Z,2.17
2019-04-14T00:14:55.476Z,2.16
2019-04-14T00:15:55.074Z,2.14
2019-04-14T00:16:55.334Z,2.14
2019-04-14T00:17:54.850Z,2.12
2019-04-14T00:18:55.516Z,2.09
2019-04-14T00:19:54.868Z,2.10
2019-04-14T00:20:55.547Z,2.09
2019-04-14T00:21:54.846Z,2.07
2019-04-14T00:22:55.525Z,2.07
2019-04-14T00:23:54.767Z,2.07
2019-04-14T00:24:55.359Z,2.06
2019-04-14T00:25:54.741Z,2.07
2019-04-14T00:26:55.234Z,2.06
2019-04-14T00:27:54.788Z,2.06
2019-04-14T00:28:55.600Z,2.03
2019-04-14T00:29:54.706Z,2.06
2019-04-14T00:30:55.568Z,2.05
2019-04-14T00:31:55.415Z,2.06
2019-04-14T00:32:55.303Z,2.06
2019-04-14T00:33:54.666Z,2.03
2019-04-14T00:34:55.007Z,2.05
2019-04-14T00:35:55.843Z,2.05
2019-04-14T00:36:54.626Z,2.03
2019-04-14T00:37:55.532Z,2.03
2019-04-14T00:38:54.667Z,2.02
2019-04-14T00:39:55.455Z,2.02
2019-04-14T00:40:54.587Z,2.00
2019-04-14T00:41:58.554Z,2.00
2019-04-14T00:42:55.949Z,2.00
2019-04-14T00:43:54.936Z,1.99
2019-04-14T00:44:54.543Z,1.98
2019-04-14T00:45:57.682Z,1.95
2019-04-14T00:46:54.524Z,1.95
2019-04-14T00:48:01.078Z,1.95
2019-04-14T00:48:56.025Z,1.95
2019-04-14T00:49:55.187Z,1.98
2019-04-14T00:50:54.494Z,1.98
2019-04-14T00:51:54.971Z,1.98
2019-04-14T00:52:54.726Z,1.99
2019-04-14T00:53:55.656Z,2.00
2019-04-14T00:54:54.495Z,2.03
2019-04-14T00:55:55.356Z,2.02
2019-04-14T00:56:54.425Z,2.00
2019-04-14T00:57:55.116Z,2.02
2019-04-14T00:58:54.454Z,2.00
2019-04-14T00:59:55.228Z,2.00
2019-04-14T01:00:54.372Z,2.02
2019-04-14T01:01:54.800Z,2.03
2019-04-14T01:02:54.344Z,2.00
2019-04-14T01:03:54.795Z,2.02
2019-04-14T01:04:55.452Z,2.02
2019-04-14T01:05:54.739Z,2.00
2019-04-14T01:06:55.440Z,2.00
2019-04-14T01:07:54.440Z,1.99
2019-04-14T01:08:55.319Z,1.99
2019-04-14T01:09:55.341Z,1.99
2019-04-14T01:10:54.298Z,1.99
2019-04-14T01:11:55.221Z,1.99
2019-04-14T01:12:54.324Z,1.99
2019-04-14T01:13:55.050Z,1.98
2019-04-14T01:14:54.223Z,1.98
2019-04-14T01:16:00.549Z,1.98
2019-04-14T01:16:55.869Z,1.95
2019-04-14T01:17:54.952Z,1.95
2019-04-14T01:18:54.204Z,1.93
2019-04-14T01:19:54.893Z,1.93
2019-04-14T01:20:54.216Z,1.91
2019-04-14T01:21:54.597Z,1.90
2019-04-14T01:22:55.219Z,1.90
2019-04-14T01:23:54.533Z,1.88
2019-04-14T01:24:55.278Z,1.90
2019-04-14T01:25:54.254Z,1.90
2019-04-14T01:26:55.009Z,1.90
2019-04-14T01:27:54.082Z,1.90
2019-04-14T01:28:54.771Z,1.90
2019-04-14T01:29:54.071Z,1.90
2019-04-14T01:30:54.483Z,1.91
2019-04-14T01:31:54.042Z,1.90
2019-04-14T01:32:54.385Z,1.88
2019-04-14T01:33:54.035Z,1.86
2019-04-14T01:34:55.267Z,1.87
2019-04-14T01:35:55.216Z,1.86
2019-04-14T01:36:54.121Z,1.86
2019-04-14T01:37:55.009Z,1.84
2019-04-14T01:38:53.972Z,1.86
2019-04-14T01:39:54.565Z,1.83
2019-04-14T01:40:55.182Z,1.84
2019-04-14T01:41:54.399Z,1.83
2019-04-14T01:42:54.814Z,1.83
2019-04-14T01:43:53.999Z,1.83
2019-04-14T01:44:54.689Z,1.81
2019-04-14T01:46:07.230Z,1.80
2019-04-14T01:46:54.934Z,1.79
2019-04-14T01:47:53.881Z,1.76
2019-04-14T01:48:54.089Z,1.76
2019-04-14T01:49:55.089Z,1.76
2019-04-14T01:50:53.871Z,1.73
2019-04-14T01:51:54.857Z,1.73
2019-04-14T01:52:54.427Z,1.72
2019-04-14T01:53:53.811Z,1.72
2019-04-14T01:54:53.849Z,1.73
2019-04-14T01:55:54.824Z,1.73
2019-04-14T01:56:53.830Z,1.72
2019-04-14T01:57:54.583Z,1.69
2019-04-14T01:58:53.770Z,1.68
2019-04-14T01:59:54.674Z,1.68
2019-04-14T02:00:53.744Z,1.68
2019-04-14T02:01:54.276Z,1.66
2019-04-14T02:02:53.781Z,1.66
2019-04-14T02:03:54.192Z,1.68
2019-04-14T02:04:53.701Z,1.66
2019-04-14T02:05:53.970Z,1.65
2019-04-14T02:06:53.670Z,1.65
2019-04-14T02:07:53.821Z,1.65
2019-04-14T02:08:54.677Z,1.65
2019-04-14T02:09:53.690Z,1.63
2019-04-14T02:10:54.398Z,1.62
2019-04-14T02:11:53.609Z,1.63
2019-04-14T02:12:54.189Z,1.63
2019-04-14T02:13:53.590Z,1.62
2019-04-14T02:14:54.066Z,1.62
2019-04-14T02:15:54.739Z,1.60
2019-04-14T02:16:57.327Z,1.59
2019-04-14T02:17:54.750Z,1.59
2019-04-14T02:18:55.309Z,1.58
2019-04-14T02:19:54.609Z,1.58
2019-04-14T02:20:53.654Z,1.55
2019-04-14T02:21:54.101Z,1.59
2019-04-14T02:22:53.508Z,1.58
2019-04-14T02:23:54.012Z,1.55
2019-04-14T02:24:54.802Z,1.54
2019-04-14T02:25:53.656Z,1.54
2019-04-14T02:26:54.669Z,1.54
2019-04-14T02:27:53.704Z,1.54
2019-04-14T02:28:53.429Z,1.52
2019-04-14T02:29:53.848Z,1.52
2019-04-14T02:31:08.297Z,1.54
2019-04-14T02:32:28.506Z,1.52
2019-04-14T02:33:26.356Z,1.52
2019-04-14T02:34:27.679Z,1.51
2019-04-14T02:35:20.609Z,1.50
2019-04-14T02:37:40.288Z,1.48
2019-04-14T02:38:40.903Z,1.47
2019-04-14T02:39:24.771Z,1.45
2019-04-14T02:41:44.254Z,1.44
2019-04-14T02:42:30.940Z,1.45
2019-04-14T02:43:23.903Z,1.44
2019-04-14T02:44:24.162Z,1.44
2019-04-14T02:46:20.100Z,1.41
2019-04-14T02:49:22.089Z,1.41
2019-04-14T02:50:17.226Z,1.40
2019-04-14T02:51:19.376Z,1.40
2019-04-14T02:52:22.302Z,1.37
2019-04-14T02:54:22.809Z,1.36
2019-04-14T02:55:18.960Z,1.33
2019-04-14T02:56:21.502Z,1.34
2019-04-14T02:59:41.562Z,1.34
2019-04-14T03:00:24.129Z,1.33
2019-04-14T03:01:26.104Z,1.32
2019-04-14T03:03:24.025Z,1.36
2019-04-14T03:04:19.482Z,1.34
2019-04-14T03:05:24.491Z,1.33
2019-04-14T03:06:18.136Z,1.33
2019-04-14T03:07:23.275Z,1.33
2019-04-14T03:09:31.515Z,1.34
2019-04-14T03:11:20.766Z,1.34
2019-04-14T03:12:25.146Z,1.40
2019-04-14T03:14:26.991Z,1.40
2019-04-14T03:15:35.332Z,1.41
2019-04-14T03:16:15.801Z,1.40
2019-04-14T03:19:29.801Z,1.34
2019-04-14T03:21:21.345Z,1.33
2019-04-14T03:22:32.863Z,1.34
2019-04-14T03:23:23.706Z,1.33
2019-04-14T03:24:24.195Z,1.33
2019-04-14T03:25:05.745Z,1.32
2019-04-14T03:26:18.209Z,1.32
2019-04-14T03:27:28.485Z,1.32
2019-04-14T03:28:19.506Z,1.30
2019-04-14T03:29:21.377Z,1.29
2019-04-14T03:30:51.721Z,1.29
2019-04-14T03:31:37.505Z,1.27
2019-04-14T03:32:35.997Z,1.29
2019-04-14T03:33:52.485Z,1.27
2019-04-14T03:34:34.107Z,1.26
2019-04-14T03:35:51.965Z,1.24
2019-04-14T03:37:37.738Z,1.24
2019-04-14T03:38:24.604Z,1.23
2019-04-14T03:39:23.495Z,1.22
2019-04-14T03:40:21.639Z,1.22
2019-04-14T03:42:29.294Z,1.18
2019-04-14T03:43:25.294Z,1.23
2019-04-14T03:44:16.789Z,1.22
2019-04-14T03:45:28.222Z,1.22
2019-04-14T03:47:21.329Z,1.20
2019-04-14T03:49:26.918Z,1.18
2019-04-14T03:52:23.975Z,1.15
2019-04-14T03:53:21.994Z,1.14
2019-04-14T03:54:16.648Z,1.12
2019-04-14T03:55:09.381Z,1.12
2019-04-14T03:55:58.772Z,1.11
2019-04-14T03:56:53.783Z,1.12
2019-04-14T03:57:52.492Z,1.11
2019-04-14T03:58:53.192Z,1.11
2019-04-14T03:59:52.472Z,1.09
2019-04-14T04:00:53.322Z,1.11
2019-04-14T04:01:52.472Z,1.08
2019-04-14T04:02:53.326Z,1.06
2019-04-14T04:03:52.482Z,1.06
2019-04-14T04:04:53.387Z,1.05
2019-04-14T04:05:52.414Z,1.05
2019-04-14T04:06:53.177Z,1.04
2019-04-14T04:07:52.394Z,1.04
2019-04-14T04:08:53.118Z,1.02
2019-04-14T04:09:52.361Z,1.00
2019-04-14T04:10:53.275Z,1.00
2019-04-14T04:11:52.361Z,1.00
2019-04-14T04:12:53.235Z,1.00
2019-04-14T04:13:52.400Z,0.98
2019-04-14T04:14:53.139Z,0.98
2019-04-14T04:15:52.325Z,0.96
2019-04-14T04:16:52.915Z,0.96
2019-04-14T04:17:52.270Z,0.94
2019-04-14T04:19:00.862Z,0.94
2019-04-14T04:19:53.490Z,0.94
2019-04-14T04:20:52.497Z,0.94
2019-04-14T04:21:53.036Z,0.94
2019-04-14T04:22:52.327Z,0.94
2019-04-14T04:23:53.304Z,0.94
2019-04-14T04:24:52.208Z,0.93
2019-04-14T04:25:52.930Z,0.94
2019-04-14T04:26:52.198Z,0.93
2019-04-14T04:27:52.648Z,0.93
2019-04-14T04:28:52.219Z,0.94
2019-04-14T04:29:52.687Z,0.94
2019-04-14T04:30:52.140Z,0.94
2019-04-14T04:31:52.630Z,0.94
2019-04-14T04:32:52.121Z,0.96
2019-04-14T04:33:52.307Z,0.96
2019-04-14T04:34:53.344Z,0.94
2019-04-14T04:35:52.239Z,0.93
2019-04-14T04:36:53.052Z,0.93
2019-04-14T04:37:52.132Z,0.93
2019-04-14T04:38:52.953Z,0.93
2019-04-14T04:39:52.068Z,0.91
2019-04-14T04:40:52.885Z,0.90
2019-04-14T04:41:52.076Z,0.90
2019-04-14T04:42:52.667Z,0.90
2019-04-14T04:43:51.998Z,0.90
2019-04-14T04:44:53.148Z,0.90
2019-04-14T04:45:51.987Z,0.91
2019-04-14T04:46:52.713Z,0.91
2019-04-14T04:47:52.008Z,0.90
2019-04-14T04:49:03.147Z,0.91
2019-04-14T04:49:53.355Z,0.90
2019-04-14T04:50:52.000Z,0.87
2019-04-14T04:51:52.949Z,0.88
2019-04-14T04:52:51.968Z,0.90
2019-04-14T04:53:52.773Z,0.90
2019-04-14T04:54:51.886Z,0.90
2019-04-14T04:55:52.472Z,0.87
2019-04-14T04:56:51.900Z,0.88
2019-04-14T04:57:52.407Z,0.87
2019-04-14T04:58:52.310Z,0.87
2019-04-14T04:59:51.835Z,0.87
2019-04-14T05:00:54.177Z,0.88
2019-04-14T05:01:51.815Z,0.87
2019-04-14T05:02:52.714Z,0.87
2019-04-14T05:03:51.852Z,0.88
2019-04-14T05:04:52.643Z,0.88
2019-04-14T05:05:51.776Z,0.88
2019-04-14T05:06:52.563Z,0.90
2019-04-14T05:07:51.809Z,0.90
2019-04-14T05:08:52.295Z,0.91
2019-04-14T05:09:51.723Z,0.91
2019-04-14T05:10:52.463Z,0.91
2019-04-14T05:11:53.579Z,0.91
2019-04-14T05:12:52.225Z,0.91
2019-04-14T05:13:51.677Z,0.91
2019-04-14T05:14:52.370Z,0.91
2019-04-14T05:15:51.665Z,0.91
2019-04-14T05:16:52.809Z,0.93
2019-04-14T05:17:51.773Z,0.91
2019-04-14T05:18:51.625Z,0.90
2019-04-14T05:19:51.928Z,0.91
2019-04-14T05:20:51.619Z,0.93
2019-04-14T05:21:51.775Z,0.93
2019-04-14T05:22:52.842Z,0.93
2019-04-14T05:23:51.710Z,0.94
2019-04-14T05:24:52.793Z,0.94
2019-04-14T05:25:51.778Z,0.96
2019-04-14T05:26:52.670Z,0.96
2019-04-14T05:27:51.665Z,0.97
2019-04-14T05:28:52.675Z,0.98
2019-04-14T05:29:51.622Z,0.98
2019-04-14T05:30:52.551Z,0.98
2019-04-14T05:31:51.486Z,1.05
2019-04-14T05:32:52.236Z,1.05
2019-04-14T05:33:51.466Z,1.06
2019-04-14T05:34:52.181Z,1.05
2019-04-14T05:35:51.505Z,1.05
2019-04-14T05:36:52.131Z,1.04
2019-04-14T05:37:51.485Z,1.04
2019-04-14T05:38:51.785Z,1.02
2019-04-14T05:39:52.596Z,1.04
2019-04-14T05:40:51.835Z,1.02
2019-04-14T05:42:00.355Z,1.04
2019-04-14T05:42:52.385Z,1.04
2019-04-14T05:43:55.666Z,1.05
2019-04-14T05:44:53.599Z,1.04
2019-04-14T05:45:52.299Z,1.05
2019-04-14T05:46:51.446Z,1.06
2019-04-14T05:47:52.267Z,1.08
2019-04-14T05:48:51.483Z,1.09
2019-04-14T05:49:53.462Z,1.08
2019-04-14T05:50:51.362Z,1.08
2019-04-14T05:51:52.352Z,1.08
2019-04-14T05:52:51.524Z,1.08
2019-04-14T05:53:52.282Z,1.09
2019-04-14T05:54:51.532Z,1.09
2019-04-14T05:55:52.421Z,1.08
2019-04-14T05:56:51.633Z,1.06
2019-04-14T05:57:52.378Z,1.08
2019-04-14T05:58:51.513Z,1.09
2019-04-14T05:59:51.192Z,1.11
2019-04-14T06:00:51.798Z,1.11
2019-04-14T06:01:51.176Z,1.14
2019-04-14T06:02:51.172Z,1.15
2019-04-14T06:03:51.778Z,1.20
2019-04-14T06:04:51.557Z,1.24
2019-04-14T06:05:51.135Z,1.26
2019-04-14T06:06:51.114Z,1.29
2019-04-14T06:07:51.161Z,1.30
2019-04-14T06:08:51.152Z,1.34
2019-04-14T06:09:51.082Z,1.37
2019-04-14T06:10:58.188Z,1.42
2019-04-14T06:11:51.124Z,1.48
2019-04-14T06:12:51.064Z,1.50
2019-04-14T06:13:51.103Z,1.55
2019-04-14T06:14:51.047Z,1.60
2019-04-14T06:15:51.023Z,1.66
2019-04-14T06:16:51.023Z,1.69
2019-04-14T06:17:50.993Z,1.72
2019-04-14T06:18:51.043Z,1.73
2019-04-14T06:19:50.986Z,1.79
2019-04-14T06:20:50.973Z,1.86
2019-04-14T06:21:50.967Z,1.91
2019-04-14T06:22:50.943Z,2.00
2019-04-14T06:23:50.993Z,2.16
2019-04-14T06:24:50.946Z,2.36
2019-04-14T06:25:50.936Z,2.60
2019-04-14T06:26:50.912Z,2.92
2019-04-14T06:27:50.920Z,3.18
2019-04-14T06:28:50.892Z,3.48
2019-04-14T06:29:50.874Z,3.79
2019-04-14T06:30:50.863Z,4.11
2019-04-14T06:31:50.853Z,4.34
2019-04-14T06:32:50.851Z,4.63
2019-04-14T06:33:50.896Z,4.73
2019-04-14T06:34:50.822Z,4.85
2019-04-14T06:35:50.816Z,4.97
2019-04-14T06:36:50.802Z,5.03
2019-04-14T06:37:50.792Z,5.09
2019-04-14T06:38:50.802Z,5.20
2019-04-14T06:39:50.770Z,5.18
2019-04-14T06:40:50.761Z,5.39
2019-04-14T06:41:50.752Z,5.53
2019-04-14T06:42:50.742Z,5.60
2019-04-14T06:43:50.733Z,5.61
2019-04-14T06:44:50.771Z,5.71
2019-04-14T06:45:50.702Z,5.78
2019-04-14T06:46:50.692Z,5.75
2019-04-14T06:47:50.684Z,5.71
2019-04-14T06:48:50.662Z,5.57
2019-04-14T06:49:50.724Z,5.61
2019-04-14T06:50:50.654Z,5.65
2019-04-14T06:51:50.631Z,5.74
2019-04-14T06:52:50.636Z,5.90
2019-04-14T06:53:50.625Z,5.93
2019-04-14T06:54:50.662Z,6.01
2019-04-14T06:55:50.592Z,6.06
2019-04-14T06:56:50.593Z,6.15
2019-04-14T06:57:50.572Z,6.28
2019-04-14T06:58:50.562Z,6.33
2019-04-14T06:59:50.601Z,6.38
2019-04-14T07:00:50.541Z,6.33
2019-04-14T07:01:50.532Z,6.21
2019-04-14T07:02:50.512Z,6.11
2019-04-14T07:03:50.502Z,6.12
2019-04-14T07:04:50.552Z,6.09
2019-04-14T07:05:50.482Z,5.94
2019-04-14T07:06:51.494Z,5.90
2019-04-14T07:07:56.781Z,5.82
2019-04-14T07:08:51.455Z,5.85
2019-04-14T07:09:50.521Z,5.86
2019-04-14T07:10:50.448Z,5.91
2019-04-14T07:11:50.436Z,5.99
2019-04-14T07:12:50.416Z,6.08
2019-04-14T07:13:50.402Z,5.93
2019-04-14T07:14:50.400Z,5.76
2019-04-14T07:15:50.454Z,5.75
2019-04-14T07:16:51.475Z,5.74
2019-04-14T07:17:50.352Z,5.67
2019-04-14T07:18:50.354Z,5.67
2019-04-14T07:20:01.273Z,5.65
2019-04-14T07:20:51.381Z,5.60
2019-04-14T07:21:50.331Z,5.64
2019-04-14T07:22:50.302Z,5.67
2019-04-14T07:23:50.302Z,5.65
2019-04-14T07:24:50.281Z,5.68
2019-04-14T07:25:50.285Z,5.61
2019-04-14T07:26:50.315Z,5.58
2019-04-14T07:27:50.266Z,5.64
2019-04-14T07:28:56.665Z,5.68
2019-04-14T07:29:51.223Z,5.79
2019-04-14T07:30:50.244Z,5.99
2019-04-14T07:31:50.224Z,6.21
2019-04-14T07:32:50.275Z,6.33
2019-04-14T07:33:50.208Z,6.40
2019-04-14T07:34:50.236Z,6.43
2019-04-14T07:35:50.192Z,6.49
2019-04-14T07:36:50.162Z,6.49
2019-04-14T07:37:50.202Z,6.49
2019-04-14T07:38:50.140Z,6.58
2019-04-14T07:39:50.132Z,6.66
2019-04-14T07:40:50.110Z,6.70
2019-04-14T07:41:50.092Z,6.84
2019-04-14T07:42:50.127Z,6.95
2019-04-14T07:43:50.073Z,7.05
2019-04-14T07:44:50.067Z,7.12
2019-04-14T07:45:50.053Z,7.12
2019-04-14T07:46:50.068Z,7.16
2019-04-14T07:47:50.097Z,7.23
2019-04-14T07:48:50.034Z,7.23
2019-04-14T07:49:50.020Z,7.31
2019-04-14T07:50:50.011Z,7.40
2019-04-14T07:51:49.994Z,7.40
2019-04-14T07:52:49.983Z,7.40
2019-04-14T07:53:50.025Z,7.45
2019-04-14T07:54:49.964Z,7.46
2019-04-14T07:55:49.973Z,7.37
2019-04-14T07:56:49.954Z,7.35
2019-04-14T07:57:49.933Z,7.31
2019-04-14T07:58:49.997Z,7.32
2019-04-14T07:59:49.913Z,7.35
2019-04-14T08:00:49.904Z,7.34
2019-04-14T08:01:49.885Z,7.40
2019-04-14T08:02:49.873Z,7.40
2019-04-14T08:03:49.864Z,7.34
2019-04-14T08:04:49.919Z,7.35
2019-04-14T08:05:49.865Z,7.43
2019-04-14T08:06:49.834Z,7.52
2019-04-14T08:07:49.824Z,7.60
2019-04-14T08:08:49.814Z,7.69
2019-04-14T08:09:49.854Z,7.79
2019-04-14T08:10:49.808Z,7.86
2019-04-14T08:11:49.784Z,7.95
2019-04-14T08:12:49.764Z,8.01
2019-04-14T08:13:49.755Z,8.08
2019-04-14T08:14:49.774Z,8.16
2019-04-14T08:15:49.735Z,8.26
2019-04-14T08:16:49.738Z,8.33
2019-04-14T08:17:49.718Z,8.37
2019-04-14T08:18:49.703Z,8.38
2019-04-14T08:19:49.739Z,8.43
2019-04-14T08:20:49.675Z,8.43
2019-04-14T08:21:49.726Z,8.45
2019-04-14T08:22:49.669Z,8.38
2019-04-14T08:23:49.646Z,8.36
2019-04-14T08:24:49.636Z,8.36
2019-04-14T08:25:49.686Z,8.36
2019-04-14T08:26:49.628Z,8.30
2019-04-14T08:27:49.607Z,8.18
2019-04-14T08:28:49.596Z,8.20
2019-04-14T08:29:49.578Z,8.26
2019-04-14T08:30:49.606Z,8.37
2019-04-14T08:31:49.557Z,8.36
2019-04-14T08:32:49.554Z,8.44
2019-04-14T08:33:49.536Z,8.61
2019-04-14T08:34:49.536Z,8.71
2019-04-14T08:35:49.526Z,8.84
2019-04-14T08:36:49.566Z,8.95
2019-04-14T08:37:49.513Z,9.01
2019-04-14T08:38:49.497Z,9.11
2019-04-14T08:39:49.487Z,9.14
2019-04-14T08:40:49.477Z,9.17
2019-04-14T08:41:49.478Z,9.15
2019-04-14T08:42:49.448Z,9.14
2019-04-14T08:43:49.453Z,9.10
2019-04-14T08:44:49.441Z,9.10
2019-04-14T08:45:49.409Z,9.01
2019-04-14T08:46:49.458Z,9.02
2019-04-14T08:47:49.392Z,9.10
2019-04-14T08:48:49.402Z,9.20
2019-04-14T08:49:49.369Z,9.32
2019-04-14T08:50:49.371Z,9.43
2019-04-14T08:51:49.362Z,9.56
2019-04-14T08:52:49.393Z,9.68
2019-04-14T08:53:49.380Z,9.71
2019-04-14T08:54:49.327Z,9.75
2019-04-14T08:55:49.299Z,9.86
2019-04-14T08:56:49.298Z,9.91
2019-04-14T08:57:49.290Z,9.89
2019-04-14T08:58:49.330Z,9.94
2019-04-14T08:59:49.274Z,10.04
2019-04-14T09:00:49.284Z,10.08
2019-04-14T09:01:49.248Z,9.96
2019-04-14T09:02:49.236Z,9.84
2019-04-14T09:03:49.275Z,9.91
2019-04-14T09:04:49.211Z,9.96
2019-04-14T09:05:49.191Z,10.08
2019-04-14T09:06:49.190Z,10.18
2019-04-14T09:07:49.172Z,10.26
2019-04-14T09:08:49.202Z,10.33
2019-04-14T09:09:49.152Z,10.42
2019-04-14T09:10:49.132Z,10.40
2019-04-14T09:11:49.122Z,10.33
2019-04-14T09:12:49.127Z,10.32
2019-04-14T09:13:49.112Z,10.34
2019-04-14T09:14:56.705Z,10.40
2019-04-14T09:15:50.092Z,10.47
2019-04-14T09:16:49.094Z,10.59
2019-04-14T09:17:49.090Z,10.71
2019-04-14T09:18:49.116Z,10.79
2019-04-14T09:19:49.103Z,10.81
2019-04-14T09:20:52.505Z,10.79
2019-04-14T09:21:49.084Z,10.82
2019-04-14T09:22:49.024Z,10.88
2019-04-14T09:23:49.018Z,10.92
2019-04-14T09:24:49.015Z,10.89
2019-04-14T09:25:49.047Z,10.78
2019-04-14T09:26:48.965Z,10.70
2019-04-14T09:27:48.955Z,10.67
2019-04-14T09:28:48.945Z,10.67
2019-04-14T09:29:48.945Z,10.66
2019-04-14T09:30:48.939Z,10.73
2019-04-14T09:31:48.973Z,10.89
2019-04-14T09:32:48.966Z,10.99
2019-04-14T09:33:48.887Z,10.99
2019-04-14T09:34:48.898Z,11.03
2019-04-14T09:35:48.878Z,11.17
2019-04-14T09:36:48.926Z,11.18
2019-04-14T09:37:48.870Z,11.10
2019-04-14T09:38:48.847Z,11.04
2019-04-14T09:39:48.840Z,11.11
2019-04-14T09:40:48.818Z,11.17
2019-04-14T09:41:48.807Z,11.27
2019-04-14T09:42:48.862Z,11.36
2019-04-14T09:43:48.800Z,11.39
2019-04-14T09:44:48.776Z,11.42
2019-04-14T09:45:48.768Z,11.36
2019-04-14T09:46:48.748Z,11.25
2019-04-14T09:47:48.768Z,11.21
2019-04-14T09:48:48.733Z,11.17
2019-04-14T09:49:48.709Z,11.15
2019-04-14T09:50:48.710Z,11.24
2019-04-14T09:51:48.690Z,11.35
2019-04-14T09:52:48.739Z,11.44
2019-04-14T09:53:48.668Z,11.52
2019-04-14T09:54:48.661Z,11.58
2019-04-14T09:55:48.651Z,11.62
2019-04-14T09:56:48.632Z,11.75
2019-04-14T09:57:48.684Z,11.94
2019-04-14T09:58:48.632Z,12.12
2019-04-14T09:59:48.610Z,12.19
2019-04-14T10:00:48.616Z,12.19
2019-04-14T10:01:48.591Z,12.13
2019-04-14T10:02:48.586Z,11.95
2019-04-14T10:03:48.612Z,11.90
2019-04-14T10:04:48.552Z,11.85
2019-04-14T10:05:48.544Z,11.82
2019-04-14T10:06:48.524Z,11.83
2019-04-14T10:07:48.572Z,11.88
2019-04-14T10:08:48.506Z,11.88
2019-04-14T10:09:48.553Z,11.90
2019-04-14T10:10:48.494Z,11.95
2019-04-14T10:11:51.221Z,12.02
2019-04-14T10:12:49.463Z,12.07
2019-04-14T10:13:48.517Z,12.16
2019-04-14T10:14:48.445Z,12.14
2019-04-14T10:15:48.435Z,12.28
2019-04-14T10:16:48.425Z,12.41
2019-04-14T10:17:48.419Z,12.45
2019-04-14T10:18:48.425Z,12.52
2019-04-14T10:19:48.395Z,12.59
2019-04-14T10:20:48.435Z,12.57
2019-04-14T10:21:48.366Z,12.54
2019-04-14T10:22:48.369Z,12.53
2019-04-14T10:23:48.359Z,12.49
2019-04-14T10:24:48.357Z,12.42
2019-04-14T10:25:48.327Z,12.47
2019-04-14T10:26:48.331Z,12.54
2019-04-14T10:27:48.318Z,12.59
2019-04-14T10:28:50.672Z,12.67
2019-04-14T10:29:48.282Z,12.71
2019-04-14T10:30:48.327Z,12.71
2019-04-14T10:31:48.268Z,12.75
2019-04-14T10:32:48.278Z,12.79
2019-04-14T10:33:48.319Z,12.87
2019-04-14T10:34:48.233Z,13.00
2019-04-14T10:35:48.220Z,12.96
2019-04-14T10:36:48.222Z,12.95
2019-04-14T10:37:48.199Z,12.97
2019-04-14T10:38:48.180Z,13.00
2019-04-14T10:39:48.202Z,12.95
2019-04-14T10:40:48.171Z,12.85
2019-04-14T10:41:48.164Z,12.74
2019-04-14T10:42:48.155Z,12.71
2019-04-14T10:43:48.131Z,12.53
2019-04-14T10:44:48.134Z,12.38
2019-04-14T10:45:48.176Z,12.20
2019-04-14T10:46:48.102Z,12.29
2019-04-14T10:47:48.092Z,12.37
2019-04-14T10:48:48.083Z,12.41
2019-04-14T10:49:48.136Z,12.45
2019-04-14T10:50:48.113Z,12.45
2019-04-14T10:51:48.054Z,12.32
2019-04-14T10:52:48.043Z,12.37
2019-04-14T10:53:48.024Z,12.46
2019-04-14T10:54:48.028Z,12.60
2019-04-14T10:55:48.065Z,12.78
2019-04-14T10:56:48.005Z,13.00
2019-04-14T10:57:47.995Z,12.97
2019-04-14T10:58:47.986Z,12.83
2019-04-14T10:59:47.967Z,12.77
2019-04-14T11:00:48.006Z,12.83
2019-04-14T11:01:47.945Z,13.00
2019-04-14T11:02:47.928Z,13.23
2019-04-14T11:03:47.938Z,13.46
2019-04-14T11:04:47.907Z,13.59
2019-04-14T11:05:47.978Z,13.64
2019-04-14T11:06:47.887Z,13.52
2019-04-14T11:07:48.927Z,13.52
2019-04-14T11:08:47.888Z,13.55
2019-04-14T11:09:47.848Z,13.42
2019-04-14T11:10:47.873Z,13.32
2019-04-14T11:11:47.886Z,13.32
2019-04-14T11:12:47.840Z,13.32
2019-04-14T11:13:47.808Z,13.32
2019-04-14T11:14:47.798Z,13.17
2019-04-14T11:15:47.789Z,12.95
2019-04-14T11:16:47.842Z,12.83
2019-04-14T11:17:47.769Z,12.71
2019-04-14T11:18:47.761Z,12.68
2019-04-14T11:19:47.754Z,12.65
2019-04-14T11:20:47.743Z,12.46
2019-04-14T11:21:47.780Z,12.31
2019-04-14T11:22:47.710Z,11.96
2019-04-14T11:23:47.761Z,11.83
2019-04-14T11:24:47.702Z,11.75
2019-04-14T11:25:47.690Z,11.67
2019-04-14T11:26:47.686Z,11.65
2019-04-14T11:27:47.664Z,11.54
2019-04-14T11:28:47.710Z,11.46
2019-04-14T11:29:47.703Z,11.43
2019-04-14T11:30:47.662Z,11.39
2019-04-14T11:31:47.627Z,11.35
2019-04-14T11:32:47.613Z,11.32
2019-04-14T11:33:47.652Z,11.35
2019-04-14T11:34:47.616Z,11.37
2019-04-14T11:35:47.579Z,11.42
2019-04-14T11:36:47.577Z,11.46
2019-04-14T11:37:47.636Z,11.42
2019-04-14T11:38:47.558Z,11.25
2019-04-14T11:39:47.558Z,11.25
2019-04-14T11:40:47.527Z,11.28
2019-04-14T11:41:47.529Z,11.25
2019-04-14T11:42:52.564Z,11.19
2019-04-14T11:43:48.544Z,11.19
2019-04-14T11:44:47.488Z,11.18
2019-04-14T11:45:47.468Z,11.18
2019-04-14T11:46:47.486Z,11.15
2019-04-14T11:47:47.459Z,11.09
2019-04-14T11:48:47.506Z,11.04
2019-04-14T11:49:47.484Z,11.04
2019-04-14T11:50:47.416Z,11.06
2019-04-14T11:51:55.117Z,11.07
2019-04-14T11:52:48.430Z,11.09
2019-04-14T11:53:47.375Z,11.06
2019-04-14T11:54:47.369Z,11.09
2019-04-14T11:55:47.426Z,11.09
2019-04-14T11:56:47.346Z,10.97
2019-04-14T11:57:47.359Z,10.82
2019-04-14T11:58:47.394Z,10.67
2019-04-14T11:59:47.324Z,10.61
2019-04-14T12:00:47.317Z,10.56
2019-04-14T12:01:47.299Z,10.52
2019-04-14T12:02:47.360Z,10.53
2019-04-14T12:03:47.278Z,10.51
2019-04-14T12:04:47.280Z,10.51
2019-04-14T12:05:47.267Z,10.52
2019-04-14T12:06:47.237Z,10.53
2019-04-14T12:07:47.241Z,10.59
2019-04-14T12:08:47.277Z,10.60
2019-04-14T12:09:47.273Z,10.61
2019-04-14T12:10:47.268Z,10.59
2019-04-14T12:11:54.245Z,10.59
2019-04-14T12:12:47.178Z,10.60
2019-04-14T12:13:47.254Z,10.60
2019-04-14T12:14:47.186Z,10.59
2019-04-14T12:15:47.135Z,10.53
2019-04-14T12:16:47.210Z,10.48
2019-04-14T12:17:47.120Z,10.45
2019-04-14T12:18:47.148Z,10.44
2019-04-14T12:19:47.094Z,10.42
2019-04-14T12:20:47.085Z,10.33
2019-04-14T12:21:47.140Z,10.18
2019-04-14T12:22:47.117Z,10.05
2019-04-14T12:23:47.137Z,10.02
2019-04-14T12:24:47.047Z,10.01
2019-04-14T12:25:47.040Z,9.97
2019-04-14T12:26:47.030Z,9.90
2019-04-14T12:27:47.012Z,9.89
2019-04-14T12:28:47.214Z,9.87
2019-04-14T12:29:47.939Z,9.87
2019-04-14T12:30:47.016Z,9.84
2019-04-14T12:31:47.038Z,9.83
2019-04-14T12:32:46.968Z,9.81
2019-04-14T12:33:46.944Z,9.79
2019-04-14T12:34:46.947Z,9.71
2019-04-14T12:35:46.918Z,9.72
2019-04-14T12:36:46.968Z,9.75
2019-04-14T12:37:46.912Z,9.87
2019-04-14T12:38:46.929Z,9.94
2019-04-14T12:39:46.879Z,10.05
2019-04-14T12:40:47.336Z,10.05
2019-04-14T12:41:46.859Z,10.07
2019-04-14T12:42:46.892Z,10.09
2019-04-14T12:43:46.852Z,10.18
2019-04-14T12:44:46.828Z,10.27
2019-04-14T12:45:46.821Z,10.34
2019-04-14T12:46:46.853Z,10.41
2019-04-14T12:47:46.818Z,10.47
2019-04-14T12:48:46.839Z,10.40
2019-04-14T12:49:46.788Z,10.26
2019-04-14T12:50:46.760Z,10.12
2019-04-14T12:51:46.760Z,9.99
2019-04-14T12:52:46.743Z,9.89
2019-04-14T12:53:46.784Z,9.72
2019-04-14T12:54:46.784Z,9.65
2019-04-14T12:55:46.710Z,9.64
2019-04-14T12:56:46.731Z,9.60
2019-04-14T12:57:46.694Z,9.64
2019-04-14T12:58:46.751Z,9.65
2019-04-14T12:59:46.667Z,9.64
2019-04-14T13:00:46.679Z,9.68
2019-04-14T13:01:46.651Z,9.69
2019-04-14T13:02:46.635Z,9.68
2019-04-14T13:03:46.642Z,9.69
2019-04-14T13:04:46.661Z,9.69
2019-04-14T13:05:46.606Z,9.71
2019-04-14T13:06:46.650Z,9.79
2019-04-14T13:07:46.581Z,9.91
2019-04-14T13:08:46.571Z,9.96
2019-04-14T13:09:46.572Z,10.02
2019-04-14T13:10:46.551Z,10.09
2019-04-14T13:11:46.533Z,10.15
2019-04-14T13:12:46.532Z,10.09
2019-04-14T13:13:46.525Z,9.96
2019-04-14T13:14:46.569Z,9.86
2019-04-14T13:15:46.492Z,9.75
2019-04-14T13:16:46.492Z,9.71
2019-04-14T13:17:46.463Z,9.64
2019-04-14T13:18:46.463Z,9.56
2019-04-14T13:19:46.522Z,9.53
2019-04-14T13:20:46.458Z,9.47
2019-04-14T13:21:46.433Z,9.38
2019-04-14T13:22:46.423Z,9.31
2019-04-14T13:23:46.483Z,9.28
2019-04-14T13:24:46.452Z,9.29
2019-04-14T13:25:46.396Z,9.35
2019-04-14T13:26:46.373Z,9.36
2019-04-14T13:27:46.364Z,9.38
2019-04-14T13:28:46.343Z,9.40
2019-04-14T13:29:46.363Z,9.40
2019-04-14T13:30:46.393Z,9.40
2019-04-14T13:31:46.377Z,9.40
2019-04-14T13:32:46.303Z,9.40